createdAt,value
2022-10-09T00:01:31.092Z,22.00
2022-10-09T00:04:00.801Z,22.00
2022-10-09T00:06:30.986Z,22.00
2022-10-09T00:09:00.255Z,21.90
2022-10-09T00:11:31.608Z,22.00
2022-10-09T00:14:00.817Z,21.90
2022-10-09T00:16:29.373Z,21.90
2022-10-09T00:18:57.996Z,22.00
2022-10-09T00:21:28.138Z,21.90
2022-10-09T00:23:58.784Z,21.90
2022-10-09T00:26:29.479Z,21.90
2022-10-09T00:28:58.190Z,21.90
2022-10-09T00:31:26.658Z,21.90
2022-10-09T00:33:55.011Z,21.90
2022-10-09T00:36:25.331Z,21.90
2022-10-09T00:38:55.873Z,21.90
2022-10-09T00:41:26.608Z,21.80
2022-10-09T00:43:59.037Z,21.90
2022-10-09T00:46:34.746Z,21.80
2022-10-09T00:49:11.557Z,21.90
2022-10-09T00:51:40.463Z,21.80
2022-10-09T00:54:13.106Z,21.80
2022-10-09T00:56:41.549Z,21.80
2022-10-09T00:59:12.021Z,21.80
2022-10-09T01:01:41.766Z,21.80
2022-10-09T01:04:10.270Z,21.80
2022-10-09T01:06:50.599Z,21.80
2022-10-09T01:09:22.485Z,21.80
2022-10-09T01:11:57.219Z,21.80
2022-10-09T01:14:30.884Z,21.80
2022-10-09T01:17:05.051Z,21.80
2022-10-09T01:19:47.512Z,21.80
2022-10-09T01:22:30.171Z,21.70
2022-10-09T01:25:06.432Z,21.80
2022-10-09T01:27:38.812Z,21.70
2022-10-09T01:30:09.891Z,21.70
2022-10-09T01:32:43.126Z,21.70
2022-10-09T01:35:14.066Z,21.70
2022-10-09T01:37:44.474Z,21.70
2022-10-09T01:40:16.818Z,21.70
2022-10-09T01:42:47.972Z,21.70
2022-10-09T01:45:16.956Z,21.70
2022-10-09T01:47:45.433Z,21.70
2022-10-09T01:50:18.872Z,21.70
2022-10-09T01:52:51.823Z,21.70
2022-10-09T01:55:37.621Z,21.60
2022-10-09T01:58:14.906Z,21.60
2022-10-09T02:00:47.955Z,21.60
2022-10-09T02:03:17.703Z,21.60
2022-10-09T02:05:49.036Z,21.60
2022-10-09T02:08:20.521Z,21.60
2022-10-09T02:10:51.627Z,21.60
2022-10-09T02:13:22.511Z,21.60
2022-10-09T02:15:55.142Z,21.60
2022-10-09T02:18:32.084Z,21.60
2022-10-09T02:21:07.839Z,21.60
2022-10-09T02:23:38.507Z,21.50
2022-10-09T02:26:08.125Z,21.50
2022-10-09T02:28:41.392Z,21.50
2022-10-09T02:31:18.754Z,21.50
2022-10-09T02:33:47.368Z,21.50
2022-10-09T02:36:15.686Z,21.50
2022-10-09T02:38:43.999Z,21.50
2022-10-09T02:41:12.284Z,21.50
2022-10-09T02:43:41.992Z,21.40
2022-10-09T02:46:10.346Z,21.40
2022-10-09T02:48:38.749Z,21.50
2022-10-09T02:51:07.219Z,21.40
2022-10-09T02:53:35.827Z,21.40
2022-10-09T02:56:04.203Z,21.40
2022-10-09T02:58:33.030Z,21.40
2022-10-09T03:01:02.816Z,21.40
2022-10-09T03:03:31.058Z,21.40
2022-10-09T03:06:02.926Z,21.40
2022-10-09T03:08:31.630Z,21.40
2022-10-09T03:11:00.223Z,21.40
2022-10-09T03:13:28.814Z,21.40
2022-10-09T03:16:03.177Z,21.40
2022-10-09T03:18:33.262Z,21.40
2022-10-09T03:21:01.597Z,21.40
2022-10-09T03:23:29.964Z,21.40
2022-10-09T03:25:59.060Z,21.30
2022-10-09T03:28:28.185Z,21.30
2022-10-09T03:30:57.483Z,21.30
2022-10-09T03:33:25.810Z,21.30
2022-10-09T03:35:55.570Z,21.30
2022-10-09T03:38:24.017Z,21.30
2022-10-09T03:40:52.582Z,21.30
2022-10-09T03:43:21.020Z,21.30
2022-10-09T03:45:49.290Z,21.30
2022-10-09T03:48:17.544Z,21.20
2022-10-09T03:50:45.909Z,21.20
2022-10-09T03:53:16.343Z,21.20
2022-10-09T03:55:45.626Z,21.20
2022-10-09T03:58:14.032Z,21.20
2022-10-09T04:00:45.402Z,21.20
2022-10-09T04:03:14.104Z,21.20
2022-10-09T04:05:42.393Z,21.20
2022-10-09T04:08:10.680Z,21.20
2022-10-09T04:10:40.413Z,21.10
2022-10-09T04:13:08.807Z,21.10
2022-10-09T04:15:37.769Z,21.10
2022-10-09T04:18:06.622Z,21.10
2022-10-09T04:20:34.976Z,21.10
2022-10-09T04:23:03.259Z,21.10
2022-10-09T04:25:31.958Z,21.10
2022-10-09T04:28:01.660Z,21.10
2022-10-09T04:30:30.049Z,21.10
2022-10-09T04:32:58.294Z,21.10
2022-10-09T04:35:26.670Z,21.00
2022-10-09T04:37:54.969Z,21.00
2022-10-09T04:40:23.282Z,21.00
2022-10-09T04:42:51.836Z,21.00
2022-10-09T04:45:21.760Z,21.00
2022-10-09T04:47:50.057Z,21.00
2022-10-09T04:50:18.610Z,21.00
2022-10-09T04:52:47.107Z,21.00
2022-10-09T04:55:15.770Z,21.00
2022-10-09T04:57:44.019Z,21.00
2022-10-09T05:00:13.836Z,21.00
2022-10-09T05:02:43.500Z,20.90
2022-10-09T05:05:11.830Z,20.90
2022-10-09T05:07:40.134Z,20.90
2022-10-09T05:10:09.475Z,20.90
2022-10-09T05:12:37.730Z,20.90
2022-10-09T05:15:07.632Z,20.90
2022-10-09T05:17:36.075Z,20.90
2022-10-09T05:20:06.811Z,20.90
2022-10-09T05:22:35.313Z,20.90
2022-10-09T05:25:03.906Z,20.90
2022-10-09T05:27:32.292Z,20.80
2022-10-09T05:30:00.606Z,20.80
2022-10-09T05:32:28.910Z,20.80
2022-10-09T05:34:57.199Z,20.80
2022-10-09T05:37:26.922Z,20.80
2022-10-09T05:39:55.214Z,20.80
2022-10-09T05:42:23.504Z,20.70
2022-10-09T05:44:51.892Z,20.80
2022-10-09T05:47:20.159Z,20.70
2022-10-09T05:49:48.445Z,20.70
2022-10-09T05:52:16.706Z,20.70
2022-10-09T05:54:46.401Z,20.70
2022-10-09T05:57:14.668Z,20.70
2022-10-09T05:59:43.079Z,20.70
2022-10-09T06:02:11.394Z,20.70
2022-10-09T06:04:39.769Z,20.80
2022-10-09T06:07:08.081Z,20.70
2022-10-09T06:09:36.411Z,20.70
2022-10-09T06:12:06.243Z,20.70
2022-10-09T06:14:34.555Z,20.70
2022-10-09T06:17:02.878Z,20.70
2022-10-09T06:19:31.245Z,20.70
2022-10-09T06:21:59.566Z,20.70
2022-10-09T06:24:29.342Z,20.80
2022-10-09T06:26:58.244Z,20.80
2022-10-09T06:29:28.114Z,20.70
2022-10-09T06:31:56.447Z,20.80
2022-10-09T06:34:24.872Z,20.80
2022-10-09T06:36:53.172Z,20.80
2022-10-09T06:39:22.611Z,20.80
2022-10-09T06:41:50.882Z,20.80
2022-10-09T06:44:19.378Z,20.80
2022-10-09T06:46:51.186Z,20.90
2022-10-09T06:49:19.690Z,20.80
2022-10-09T06:51:48.114Z,20.80
2022-10-09T06:54:17.591Z,20.80
2022-10-09T06:56:46.335Z,20.80
2022-10-09T06:59:14.969Z,20.80
2022-10-09T07:01:43.516Z,20.70
2022-10-09T07:04:15.296Z,20.80
2022-10-09T07:06:45.891Z,20.80
2022-10-09T07:09:16.151Z,20.80
2022-10-09T07:11:45.981Z,20.80
2022-10-09T07:14:16.089Z,20.80
2022-10-09T07:16:46.234Z,20.80
2022-10-09T07:19:17.860Z,20.80
2022-10-09T07:21:48.469Z,20.80
2022-10-09T07:24:18.228Z,20.90
2022-10-09T07:26:48.327Z,20.80
2022-10-09T07:29:19.191Z,20.80
2022-10-09T07:31:47.491Z,20.90
2022-10-09T07:34:17.389Z,20.90
2022-10-09T07:36:45.727Z,20.90
2022-10-09T07:39:14.492Z,20.90
2022-10-09T07:41:43.423Z,21.00
2022-10-09T07:44:12.270Z,21.00
2022-10-09T07:46:40.659Z,21.00
2022-10-09T07:49:08.988Z,21.10
2022-10-09T07:51:38.811Z,21.10
2022-10-09T07:54:07.254Z,21.10
2022-10-09T07:56:38.056Z,21.10
2022-10-09T07:59:08.711Z,21.20
2022-10-09T08:01:37.554Z,21.20
2022-10-09T08:04:06.283Z,21.30
2022-10-09T08:06:35.305Z,21.30
2022-10-09T08:09:06.374Z,21.30
2022-10-09T08:11:35.306Z,21.30
2022-10-09T08:14:03.588Z,21.30
2022-10-09T08:16:33.466Z,21.30
2022-10-09T08:19:03.356Z,21.30
2022-10-09T08:21:33.026Z,21.40
2022-10-09T08:24:01.986Z,21.40
2022-10-09T08:26:32.450Z,21.40
2022-10-09T08:29:02.504Z,21.40
2022-10-09T08:31:31.883Z,21.40
2022-10-09T08:34:02.564Z,21.40
2022-10-09T08:36:31.585Z,21.40
2022-10-09T08:39:00.408Z,21.40
2022-10-09T08:41:43.201Z,21.40
2022-10-09T08:44:17.016Z,21.40
2022-10-09T08:46:58.651Z,21.50
2022-10-09T08:49:32.481Z,21.50
2022-10-09T08:52:07.397Z,21.50
2022-10-09T08:54:38.310Z,21.60
2022-10-09T08:57:14.534Z,21.60
2022-10-09T08:59:43.858Z,21.60
2022-10-09T09:02:30.652Z,21.70
2022-10-09T09:05:13.667Z,21.70
2022-10-09T09:07:52.353Z,21.80
2022-10-09T09:10:31.001Z,21.80
2022-10-09T09:13:09.272Z,21.90
2022-10-09T09:15:46.024Z,21.90
2022-10-09T09:18:27.937Z,22.00
2022-10-09T09:20:58.404Z,22.00
2022-10-09T09:23:30.856Z,22.00
2022-10-09T09:26:01.775Z,22.10
2022-10-09T09:28:37.638Z,22.10
2022-10-09T09:31:17.611Z,22.10
2022-10-09T09:33:55.638Z,22.20
2022-10-09T09:36:29.308Z,22.20
2022-10-09T09:39:49.926Z,22.20
2022-10-09T09:41:51.392Z,22.20
2022-10-09T09:44:21.601Z,22.20
2022-10-09T09:46:51.341Z,22.30
2022-10-09T09:49:21.927Z,22.30
2022-10-09T09:51:52.176Z,22.30
2022-10-09T09:54:23.887Z,22.40
2022-10-09T09:57:12.002Z,22.40
2022-10-09T09:59:45.206Z,22.40
2022-10-09T10:02:18.355Z,22.50
2022-10-09T10:04:54.565Z,22.50
2022-10-09T10:07:34.054Z,22.60
2022-10-09T10:10:08.374Z,22.70
2022-10-09T10:12:42.598Z,22.80
2022-10-09T10:15:24.878Z,22.80
2022-10-09T10:18:01.013Z,22.80
2022-10-09T10:20:30.786Z,22.80
2022-10-09T10:22:59.923Z,22.90
2022-10-09T10:25:33.542Z,22.90
2022-10-09T10:28:07.039Z,23.00
2022-10-09T10:30:38.893Z,23.00
2022-10-09T10:33:16.123Z,23.10
2022-10-09T10:35:45.148Z,23.10
2022-10-09T10:38:18.269Z,23.20
2022-10-09T10:40:52.188Z,23.30
2022-10-09T10:43:34.718Z,23.30
2022-10-09T10:46:13.460Z,23.20
2022-10-09T10:48:45.667Z,23.30
2022-10-09T10:51:29.671Z,23.20
2022-10-09T10:54:10.005Z,23.30
2022-10-09T10:56:42.282Z,23.30
2022-10-09T10:59:35.972Z,23.40
2022-10-09T11:02:45.335Z,23.40
2022-10-09T11:05:27.188Z,23.50
2022-10-09T11:08:11.505Z,23.60
2022-10-09T11:10:51.627Z,23.60
2022-10-09T11:13:26.812Z,23.70
2022-10-09T11:16:06.394Z,23.70
2022-10-09T11:18:53.322Z,23.80
2022-10-09T11:21:32.934Z,23.90
2022-10-09T11:24:27.076Z,24.00
2022-10-09T11:27:03.737Z,24.20
2022-10-09T11:29:38.413Z,24.30
2022-10-09T11:32:15.254Z,24.40
2022-10-09T11:34:52.343Z,24.50
2022-10-09T11:37:24.103Z,24.50
2022-10-09T11:39:52.899Z,24.50
2022-10-09T11:42:24.315Z,24.50
2022-10-09T11:45:04.040Z,24.50
2022-10-09T11:47:39.086Z,24.50
2022-10-09T11:50:33.032Z,24.40
2022-10-09T11:53:06.936Z,24.40
2022-10-09T11:55:35.937Z,24.40
2022-10-09T11:58:21.342Z,24.30
2022-10-09T12:00:51.612Z,24.30
2022-10-09T12:03:30.212Z,24.30
2022-10-09T12:06:08.370Z,24.30
2022-10-09T12:08:37.974Z,24.30
2022-10-09T12:11:15.423Z,24.30
2022-10-09T12:13:51.361Z,24.40
2022-10-09T12:16:38.722Z,24.40
2022-10-09T12:19:20.929Z,24.40
2022-10-09T12:21:56.127Z,24.40
2022-10-09T12:24:27.258Z,24.50
2022-10-09T12:27:00.930Z,24.60
2022-10-09T12:29:32.847Z,24.70
2022-10-09T12:32:06.419Z,24.80
2022-10-09T12:34:39.108Z,24.90
2022-10-09T12:37:17.873Z,24.90
2022-10-09T12:39:47.046Z,24.90
2022-10-09T12:42:22.925Z,24.80
2022-10-09T12:44:53.653Z,24.90
2022-10-09T12:47:25.811Z,25.00
2022-10-09T12:50:02.979Z,25.00
2022-10-09T12:52:33.301Z,25.10
2022-10-09T12:55:03.651Z,25.20
2022-10-09T12:57:32.213Z,25.40
2022-10-09T13:00:00.695Z,25.40
2022-10-09T13:02:29.205Z,25.50
2022-10-09T13:05:00.473Z,25.70
2022-10-09T13:07:32.514Z,25.80
2022-10-09T13:10:06.614Z,25.90
2022-10-09T13:12:35.608Z,25.90
2022-10-09T13:15:06.368Z,25.80
2022-10-09T13:17:36.943Z,25.70
2022-10-09T13:20:27.643Z,25.70
2022-10-09T13:22:57.143Z,25.80
2022-10-09T13:25:28.084Z,26.00
2022-10-09T13:27:56.436Z,26.10
2022-10-09T13:30:24.824Z,26.20
2022-10-09T13:32:53.138Z,26.10
2022-10-09T13:35:21.498Z,26.20
2022-10-09T13:37:50.327Z,26.20
2022-10-09T13:40:22.387Z,26.10
2022-10-09T13:42:57.379Z,26.00
2022-10-09T13:45:25.781Z,26.00
2022-10-09T13:47:54.190Z,26.00
2022-10-09T13:50:22.641Z,26.00
2022-10-09T13:52:50.995Z,26.10
2022-10-09T13:55:19.554Z,26.30
2022-10-09T13:57:48.488Z,26.30
2022-10-09T14:00:18.561Z,26.30
2022-10-09T14:02:47.219Z,26.30
2022-10-09T14:05:15.636Z,26.30
2022-10-09T14:07:44.083Z,26.30
2022-10-09T14:10:12.672Z,26.20
2022-10-09T14:12:43.432Z,26.10
2022-10-09T14:15:12.483Z,26.10
2022-10-09T14:17:44.049Z,26.00
2022-10-09T14:20:15.161Z,25.90
2022-10-09T14:22:43.558Z,25.90
2022-10-09T14:25:12.376Z,25.80
2022-10-09T14:27:43.894Z,25.80
2022-10-09T14:30:14.100Z,25.70
2022-10-09T14:32:44.686Z,25.60
2022-10-09T14:35:14.602Z,25.70
2022-10-09T14:37:44.720Z,25.60
2022-10-09T14:40:14.351Z,25.60
2022-10-09T14:42:43.141Z,25.50
2022-10-09T14:45:12.808Z,25.50
2022-10-09T14:47:41.628Z,25.50
2022-10-09T14:50:12.748Z,25.50
2022-10-09T14:52:42.486Z,25.50
2022-10-09T14:55:11.469Z,25.50
2022-10-09T14:57:40.306Z,25.40
2022-10-09T15:00:10.372Z,25.40
2022-10-09T15:02:39.752Z,25.40
2022-10-09T15:05:09.503Z,25.40
2022-10-09T15:07:40.097Z,25.40
2022-10-09T15:10:09.964Z,25.30
2022-10-09T15:12:38.541Z,25.30
2022-10-09T15:15:07.712Z,25.30
2022-10-09T15:17:36.267Z,25.30
2022-10-09T15:20:05.142Z,25.20
2022-10-09T15:22:33.753Z,25.20
2022-10-09T15:25:03.761Z,25.20
2022-10-09T15:27:32.496Z,25.20
2022-10-09T15:30:00.999Z,25.20
2022-10-09T15:32:29.772Z,25.20
2022-10-09T15:34:58.337Z,25.20
2022-10-09T15:37:26.985Z,25.10
2022-10-09T15:39:55.762Z,25.10
2022-10-09T15:42:25.817Z,25.10
2022-10-09T15:44:54.562Z,25.10
2022-10-09T15:47:39.273Z,25.10
2022-10-09T15:50:12.244Z,25.10
2022-10-09T15:52:40.829Z,25.10
2022-10-09T15:55:09.864Z,25.00
2022-10-09T15:57:39.872Z,25.00
2022-10-09T16:00:10.047Z,25.00
2022-10-09T16:02:38.444Z,25.00
2022-10-09T16:05:07.483Z,25.00
2022-10-09T16:07:35.813Z,25.00
2022-10-09T16:10:04.347Z,25.00
2022-10-09T16:12:32.682Z,25.00
2022-10-09T16:15:02.651Z,25.00
2022-10-09T16:17:31.449Z,25.00
2022-10-09T16:20:00.308Z,25.00
2022-10-09T16:22:28.648Z,25.00
2022-10-09T16:24:57.012Z,24.90
2022-10-09T16:27:25.335Z,24.90
2022-10-09T16:29:53.635Z,24.90
2022-10-09T16:32:23.291Z,24.80
2022-10-09T16:34:51.679Z,24.80
2022-10-09T16:37:19.951Z,24.80
2022-10-09T16:39:49.466Z,24.70
2022-10-09T16:42:17.850Z,24.80
2022-10-09T16:44:46.141Z,24.70
2022-10-09T16:47:14.501Z,24.70
2022-10-09T16:49:44.183Z,24.70
2022-10-09T16:52:12.572Z,24.70
2022-10-09T16:54:40.994Z,24.70
2022-10-09T16:57:09.360Z,24.70
2022-10-09T16:59:37.670Z,24.60
2022-10-09T17:02:05.971Z,24.60
2022-10-09T17:04:34.359Z,24.60
2022-10-09T17:07:04.508Z,24.50
2022-10-09T17:09:33.578Z,24.50
2022-10-09T17:12:02.034Z,24.50
2022-10-09T17:14:30.361Z,24.40
2022-10-09T17:16:58.669Z,24.50
2022-10-09T17:19:27.011Z,24.40
2022-10-09T17:21:55.376Z,24.40
2022-10-09T17:24:25.156Z,24.40
2022-10-09T17:26:53.769Z,24.40
2022-10-09T17:29:23.025Z,24.30
2022-10-09T17:31:51.647Z,24.30
2022-10-09T17:34:20.412Z,24.30
2022-10-09T17:36:48.669Z,24.30
2022-10-09T17:39:19.003Z,24.30
2022-10-09T17:41:49.825Z,24.30
2022-10-09T17:44:18.383Z,24.20
2022-10-09T17:46:46.689Z,24.20
2022-10-09T17:49:15.034Z,24.20
2022-10-09T17:51:43.326Z,24.20
2022-10-09T17:54:14.145Z,24.20
2022-10-09T17:56:42.438Z,24.20
2022-10-09T17:59:12.705Z,24.20
2022-10-09T18:01:41.162Z,24.10
2022-10-09T18:04:10.877Z,24.10
2022-10-09T18:06:39.211Z,24.10
2022-10-09T18:09:07.494Z,24.10
2022-10-09T18:11:35.816Z,24.10
2022-10-09T18:14:05.476Z,24.10
2022-10-09T18:16:38.071Z,24.10
2022-10-09T18:19:07.968Z,24.10
2022-10-09T18:21:36.764Z,24.10
2022-10-09T18:24:05.557Z,24.10
2022-10-09T18:26:34.492Z,24.00
2022-10-09T18:29:03.120Z,24.10
2022-10-09T18:31:31.703Z,24.00
2022-10-09T18:34:02.039Z,24.00
2022-10-09T18:36:33.748Z,24.00
2022-10-09T18:39:04.288Z,24.10
2022-10-09T18:41:32.621Z,24.10
2022-10-09T18:44:01.523Z,24.00
2022-10-09T18:46:35.193Z,24.00
2022-10-09T18:49:09.363Z,24.00
2022-10-09T18:51:40.873Z,24.00
2022-10-09T18:54:13.219Z,24.00
2022-10-09T18:56:42.831Z,24.00
2022-10-09T18:59:14.446Z,24.00
2022-10-09T19:01:42.801Z,24.00
2022-10-09T19:04:12.761Z,23.90
2022-10-09T19:06:41.115Z,23.90
2022-10-09T19:09:09.403Z,23.90
2022-10-09T19:11:37.790Z,23.90
2022-10-09T19:14:06.564Z,23.90
2022-10-09T19:16:35.936Z,23.90
2022-10-09T19:19:04.613Z,23.90
2022-10-09T19:21:34.704Z,23.90
2022-10-09T19:24:06.141Z,23.80
2022-10-09T19:26:35.488Z,23.80
2022-10-09T19:29:04.262Z,23.80
2022-10-09T19:31:33.151Z,23.80
2022-10-09T19:34:01.761Z,23.80
2022-10-09T19:36:33.250Z,23.80
2022-10-09T19:39:03.016Z,23.80
2022-10-09T19:41:31.423Z,23.80
2022-10-09T19:44:00.408Z,23.80
2022-10-09T19:46:29.105Z,23.80
2022-10-09T19:48:57.463Z,23.70
2022-10-09T19:51:27.601Z,23.70
2022-10-09T19:53:56.449Z,23.70
2022-10-09T19:56:28.353Z,23.70
2022-10-09T19:58:57.792Z,23.70
2022-10-09T20:01:28.091Z,23.60
2022-10-09T20:04:00.792Z,23.70
2022-10-09T20:06:29.618Z,23.60
2022-10-09T20:08:58.303Z,23.60
2022-10-09T20:11:28.710Z,23.60
2022-10-09T20:13:57.441Z,23.60
2022-10-09T20:16:29.930Z,23.60
2022-10-09T20:18:58.231Z,23.60
2022-10-09T20:21:27.117Z,23.60
2022-10-09T20:23:58.065Z,23.60
2022-10-09T20:26:27.071Z,23.60
2022-10-09T20:28:56.820Z,23.50
2022-10-09T20:31:27.619Z,23.50
2022-10-09T20:33:57.007Z,23.50
2022-10-09T20:36:28.400Z,23.40
2022-10-09T20:38:59.208Z,23.50
2022-10-09T20:41:29.115Z,23.40
2022-10-09T20:44:01.209Z,23.40
2022-10-09T20:46:31.614Z,23.40
2022-10-09T20:49:01.095Z,23.40
2022-10-09T20:51:29.755Z,23.40
2022-10-09T20:54:00.647Z,23.40
2022-10-09T20:56:31.538Z,23.40
2022-10-09T20:59:02.852Z,23.40
2022-10-09T21:01:32.244Z,23.40
2022-10-09T21:04:00.969Z,23.40
2022-10-09T21:06:30.195Z,23.40
2022-10-09T21:08:58.688Z,23.40
2022-10-09T21:11:27.512Z,23.40
2022-10-09T21:13:56.945Z,23.40
2022-10-09T21:16:27.156Z,23.40
2022-10-09T21:18:57.712Z,23.40
2022-10-09T21:21:27.537Z,23.40
2022-10-09T21:24:00.840Z,23.40
2022-10-09T21:26:31.006Z,23.40
2022-10-09T21:29:00.303Z,23.40
2022-10-09T21:31:32.632Z,23.40
2022-10-09T21:34:03.362Z,23.40
2022-10-09T21:36:41.073Z,23.30
2022-10-09T21:39:19.602Z,23.30
2022-10-09T21:41:49.084Z,23.40
2022-10-09T21:44:18.270Z,23.40
2022-10-09T21:46:49.110Z,23.40
2022-10-09T21:49:21.671Z,23.30
2022-10-09T21:51:51.539Z,23.40
2022-10-09T21:54:20.439Z,23.30
2022-10-09T21:56:49.453Z,23.30
2022-10-09T21:59:17.694Z,23.30
2022-10-09T22:01:48.163Z,23.30
2022-10-09T22:04:16.612Z,23.30
2022-10-09T22:06:44.916Z,23.20
2022-10-09T22:09:13.537Z,23.30
2022-10-09T22:11:41.904Z,23.20
2022-10-09T22:14:10.329Z,23.30
2022-10-09T22:16:38.651Z,23.20
2022-10-09T22:19:08.400Z,23.20
2022-10-09T22:21:36.712Z,23.20
2022-10-09T22:24:05.242Z,23.20
2022-10-09T22:26:33.548Z,23.20
2022-10-09T22:29:01.793Z,23.20
2022-10-09T22:31:30.222Z,23.20
2022-10-09T22:34:01.906Z,23.20
2022-10-09T22:36:34.163Z,23.10
2022-10-09T22:39:05.327Z,23.20
2022-10-09T22:41:35.904Z,23.10
2022-10-09T22:44:06.563Z,23.10
2022-10-09T22:46:36.614Z,23.10
2022-10-09T22:49:06.049Z,23.10
2022-10-09T22:51:36.276Z,23.10
2022-10-09T22:54:04.943Z,23.10
2022-10-09T22:56:35.503Z,23.10
2022-10-09T22:59:03.806Z,23.10
2022-10-09T23:01:35.456Z,23.10
2022-10-09T23:04:06.029Z,23.10
2022-10-09T23:06:35.835Z,23.10
2022-10-09T23:09:06.526Z,23.00
2022-10-09T23:11:35.328Z,23.00
2022-10-09T23:14:04.244Z,23.00
2022-10-09T23:16:33.540Z,23.00
2022-10-09T23:19:06.769Z,23.00
2022-10-09T23:21:37.881Z,23.00
2022-10-09T23:24:07.755Z,23.00
2022-10-09T23:26:37.793Z,23.10
2022-10-09T23:29:07.982Z,23.00
2022-10-09T23:31:37.179Z,23.00
2022-10-09T23:34:06.531Z,23.00
2022-10-09T23:36:36.752Z,23.00
2022-10-09T23:39:06.858Z,23.00
2022-10-09T23:41:35.811Z,23.00
2022-10-09T23:44:04.538Z,23.00
2022-10-09T23:46:34.315Z,23.00
2022-10-09T23:49:02.883Z,23.00
2022-10-09T23:51:31.906Z,23.00
2022-10-09T23:54:01.993Z,23.00
2022-10-09T23:56:32.772Z,23.00
2022-10-09T23:59:02.561Z,22.90
